Time;durP1;ratioP1;P1;durP2;ratioP2;P2;SDS_P1;SDS_P2;PMS_P1;PMS_P2;Temp;Humidity;BMP_temperature;BMP_pressure;BME280_temperature;BME280_humidity;BME280_pressure;Samples;Min_cycle;Max_cycle;Signal;HPM_P1;HPM_P2
2022/10/21 00:01:54;;;;;;;;;;;14.60;70.60;;;;;;5072374;28;19924;-67
2022/10/21 00:04:19;;;;;;;;;;;14.60;69.90;;;;;;5072030;28;19920;-67
2022/10/21 00:06:45;;;;;;;;;;;14.60;70.00;;;;;;5072258;28;19921;-67
2022/10/21 00:09:11;;;;;;;;;;;14.70;70.00;;;;;;5072106;28;19974;-67
2022/10/21 00:11:37;;;;;;;;;;;14.70;70.00;;;;;;5071911;28;20331;-67
2022/10/21 00:14:03;;;;;;;;;;;14.70;70.00;;;;;;5073044;28;19931;-67
2022/10/21 00:16:28;;;;;;;;;;;14.70;70.00;;;;;;5071737;28;20033;-67
2022/10/21 00:18:54;;;;;;;;;;;14.70;70.00;;;;;;5071534;28;19928;-67
2022/10/21 00:21:20;;;;;;;;;;;14.70;70.00;;;;;;5071991;28;19920;-67
2022/10/21 00:23:47;;;;;;;;;;;14.70;70.00;;;;;;5071854;28;19921;-67
2022/10/21 00:26:13;;;;;;;;;;;14.70;70.00;;;;;;5072862;28;20372;-68
2022/10/21 00:28:38;;;;;;;;;;;14.70;70.00;;;;;;5073138;28;19931;-67
2022/10/21 00:31:05;;;;;;;;;;;14.70;70.00;;;;;;5071733;28;20013;-67
2022/10/21 00:33:30;;;;;;;;;;;14.70;70.00;;;;;;5071527;28;19921;-67
2022/10/21 00:35:57;;;;;;;;;;;14.70;70.00;;;;;;5071410;28;20011;-67
2022/10/21 00:38:23;;;;;;;;;;;14.70;70.00;;;;;;5071379;28;19925;-67
2022/10/21 00:40:48;;;;;;;;;;;14.70;70.00;;;;;;5071555;28;19947;-67
2022/10/21 00:43:14;;;;;;;;;;;14.60;70.00;;;;;;5071597;28;19970;-67
2022/10/21 00:45:40;;;;;;;;;;;14.70;70.00;;;;;;5071589;28;19969;-67
2022/10/21 00:48:08;;;;;;;;;;;14.80;70.10;;;;;;5071300;28;20332;-67
2022/10/21 00:50:38;;;;;;;;;;;14.70;70.00;;;;;;5071552;28;19934;-67
2022/10/21 00:53:05;;;;;;;;;;;14.70;70.00;;;;;;5071138;28;19921;-67
2022/10/21 00:55:33;;;;;;;;;;;14.70;70.00;;;;;;5071387;28;20318;-67
2022/10/21 00:57:59;;;;;;;;;;;14.70;70.00;;;;;;5071225;28;19974;-67
2022/10/21 01:00:25;;;;;;;;;;;14.70;70.10;;;;;;5071391;28;19920;-67
2022/10/21 01:02:50;;;;;;;;;;;14.70;70.00;;;;;;5071636;28;19969;-67
2022/10/21 01:05:16;;;;;;;;;;;14.70;70.10;;;;;;5071098;28;20378;-67
2022/10/21 01:07:44;;;;;;;;;;;14.70;70.00;;;;;;5072380;28;19924;-67
2022/10/21 01:10:10;;;;;;;;;;;14.70;70.10;;;;;;5072318;28;19920;-67
2022/10/21 01:12:55;;;;;;;;;;;14.80;70.10;;;;;;5071684;28;19931;-67
2022/10/21 01:15:34;;;;;;;;;;;14.70;70.00;;;;;;5071168;28;19943;-67
2022/10/21 01:18:08;;;;;;;;;;;14.70;70.10;;;;;;5070806;28;19970;-67
2022/10/21 01:20:43;;;;;;;;;;;14.70;70.10;;;;;;5072158;28;20299;-67
2022/10/21 01:26:08;;;;;;;;;;;14.70;70.00;;;;;;5163873;27;19918;-67
2022/10/21 01:28:52;;;;;;;;;;;14.70;70.80;;;;;;5164387;27;19920;-67
2022/10/21 01:31:37;;;;;;;;;;;14.70;70.10;;;;;;5129572;28;19924;-67
2022/10/21 01:34:16;;;;;;;;;;;14.70;70.10;;;;;;5163798;27;20374;-68
2022/10/21 01:36:48;;;;;;;;;;;14.70;70.10;;;;;;5129270;28;19923;-67
2022/10/21 01:39:34;;;;;;;;;;;14.70;70.10;;;;;;5129607;28;19920;-67
2022/10/21 01:42:05;;;;;;;;;;;14.70;70.10;;;;;;5163807;27;19920;-67
2022/10/21 01:44:34;;;;;;;;;;;14.70;70.20;;;;;;5129363;28;19928;-67
2022/10/21 01:47:05;;;;;;;;;;;14.70;70.10;;;;;;5129070;28;19923;-67
2022/10/21 01:49:33;;;;;;;;;;;14.70;70.20;;;;;;5130461;27;19998;-67
2022/10/21 01:52:00;;;;;;;;;;;14.70;70.90;;;;;;5128988;28;19931;-67
2022/10/21 01:54:28;;;;;;;;;;;14.70;70.20;;;;;;5128246;28;20432;-67
2022/10/21 01:56:54;;;;;;;;;;;14.70;70.20;;;;;;5130349;27;19942;-67
2022/10/21 01:59:22;;;;;;;;;;;14.70;70.20;;;;;;5130227;27;19919;-67
2022/10/21 02:01:48;;;;;;;;;;;14.70;70.10;;;;;;5129145;28;20275;-67
2022/10/21 02:04:14;;;;;;;;;;;14.60;70.00;;;;;;5128881;28;19924;-68
2022/10/21 02:06:40;;;;;;;;;;;14.70;70.10;;;;;;5129077;28;19920;-67
2022/10/21 02:09:05;;;;;;;;;;;14.70;70.20;;;;;;5128596;28;19946;-67
2022/10/21 02:11:32;;;;;;;;;;;14.70;70.20;;;;;;5128635;28;20014;-68
2022/10/21 02:14:04;;;;;;;;;;;14.70;70.10;;;;;;5128546;28;19920;-67
2022/10/21 02:16:31;;;;;;;;;;;14.70;70.00;;;;;;5129905;27;19920;-66
2022/10/21 02:18:58;;;;;;;;;;;14.70;70.10;;;;;;5128478;28;20268;-66
2022/10/21 02:21:27;;;;;;;;;;;14.70;70.20;;;;;;5128710;28;19920;-67
2022/10/21 02:24:12;;;;;;;;;;;14.70;70.20;;;;;;5129338;27;19923;-68
2022/10/21 02:26:38;;;;;;;;;;;14.70;70.20;;;;;;5128144;28;19923;-68
2022/10/21 02:29:03;;;;;;;;;;;14.70;70.20;;;;;;5128547;28;19919;-66
2022/10/21 02:34:29;;;;;;;;;;;14.70;70.20;;;;;;5122451;27;20360;-66
2022/10/21 02:37:05;;;;;;;;;;;14.60;70.20;;;;;;5088373;28;19921;-66
2022/10/21 02:39:33;;;;;;;;;;;14.80;70.20;;;;;;5088831;28;20332;-69
2022/10/21 02:42:01;;;;;;;;;;;14.70;70.20;;;;;;5088830;28;19920;-67
2022/10/21 02:44:26;;;;;;;;;;;14.70;70.20;;;;;;5087743;28;19926;-68
2022/10/21 02:46:52;;;;;;;;;;;14.70;70.20;;;;;;5089640;28;19924;-67
2022/10/21 02:49:17;;;;;;;;;;;14.80;70.20;;;;;;5088292;28;19927;-69
2022/10/21 02:51:43;;;;;;;;;;;14.80;70.30;;;;;;5088300;28;19927;-69
2022/10/21 02:54:09;;;;;;;;;;;14.80;70.30;;;;;;5088267;28;19927;-67
2022/10/21 02:56:34;;;;;;;;;;;14.70;70.20;;;;;;5088288;28;19921;-66
2022/10/21 02:59:00;;;;;;;;;;;14.80;71.00;;;;;;5088486;28;19920;-67
2022/10/21 03:01:26;;;;;;;;;;;14.80;70.20;;;;;;5088092;28;19981;-68
2022/10/21 03:03:51;;;;;;;;;;;14.80;70.20;;;;;;5088160;28;20011;-67
2022/10/21 03:06:17;;;;;;;;;;;14.80;70.20;;;;;;5087990;28;20008;-67
2022/10/21 03:08:42;;;;;;;;;;;14.80;70.20;;;;;;5088343;28;20015;-68
2022/10/21 03:11:08;;;;;;;;;;;14.80;70.20;;;;;;5087970;28;19927;-68
2022/10/21 03:13:33;;;;;;;;;;;14.80;70.20;;;;;;5089112;28;19925;-68
2022/10/21 03:15:59;;;;;;;;;;;14.80;70.20;;;;;;5088081;28;19974;-67
2022/10/21 03:18:24;;;;;;;;;;;14.80;70.20;;;;;;5089072;28;20336;-68
2022/10/21 03:20:50;;;;;;;;;;;14.80;70.20;;;;;;5088035;28;19921;-68
2022/10/21 03:23:16;;;;;;;;;;;14.80;70.20;;;;;;5087377;28;19927;-68
2022/10/21 03:25:42;;;;;;;;;;;14.80;70.20;;;;;;5087947;28;19931;-67
2022/10/21 03:28:08;;;;;;;;;;;14.80;70.20;;;;;;5087638;28;20288;-68
2022/10/21 03:30:34;;;;;;;;;;;14.80;70.20;;;;;;5087575;28;20075;-67
2022/10/21 03:32:59;;;;;;;;;;;14.80;70.20;;;;;;5087355;28;19973;-67
2022/10/21 03:35:25;;;;;;;;;;;14.80;70.20;;;;;;5088067;28;19989;-68
2022/10/21 03:37:50;;;;;;;;;;;14.80;70.20;;;;;;5087537;28;19924;-67
2022/10/21 03:40:16;;;;;;;;;;;14.80;70.20;;;;;;5087376;28;19964;-67
2022/10/21 03:42:41;;;;;;;;;;;14.80;70.20;;;;;;5087710;28;20011;-67
2022/10/21 03:45:07;;;;;;;;;;;14.80;70.20;;;;;;5077154;28;19927;-67
2022/10/21 03:47:33;;;;;;;;;;;14.80;70.20;;;;;;5073974;28;19920;-67
2022/10/21 03:49:58;;;;;;;;;;;14.80;70.30;;;;;;5074275;28;20253;-68
2022/10/21 03:52:23;;;;;;;;;;;14.80;70.20;;;;;;5073612;28;19932;-67
2022/10/21 03:54:49;;;;;;;;;;;14.90;70.30;;;;;;5073654;28;19921;-68
2022/10/21 03:57:14;;;;;;;;;;;14.80;70.30;;;;;;5073597;28;19920;-67
2022/10/21 03:59:40;;;;;;;;;;;14.70;70.20;;;;;;5073896;28;19928;-68
2022/10/21 04:02:05;;;;;;;;;;;14.80;70.30;;;;;;5073471;28;20376;-68
2022/10/21 04:04:31;;;;;;;;;;;14.80;70.30;;;;;;5074716;28;19924;-68
2022/10/21 04:06:57;;;;;;;;;;;14.80;70.30;;;;;;5074890;28;19921;-67
2022/10/21 04:09:22;;;;;;;;;;;14.80;70.30;;;;;;5056995;28;19924;-68
2022/10/21 04:11:48;;;;;;;;;;;14.80;70.60;;;;;;5073579;28;20364;-67
2022/10/21 04:14:13;;;;;;;;;;;14.80;70.30;;;;;;5074603;28;20532;-67
2022/10/21 04:16:39;;;;;;;;;;;14.70;71.00;;;;;;5073492;28;19928;-67
2022/10/21 04:19:04;;;;;;;;;;;14.80;70.30;;;;;;5074398;28;19920;-68
2022/10/21 04:21:30;;;;;;;;;;;14.80;70.30;;;;;;5073180;28;19969;-67
2022/10/21 04:23:55;;;;;;;;;;;14.90;70.30;;;;;;5073646;28;19924;-67
2022/10/21 04:26:21;;;;;;;;;;;14.80;70.30;;;;;;5074343;28;20300;-67
2022/10/21 04:28:46;;;;;;;;;;;14.80;70.30;;;;;;5072982;28;19920;-67
2022/10/21 04:31:12;;;;;;;;;;;14.80;70.30;;;;;;5073037;28;19978;-67
2022/10/21 04:33:38;;;;;;;;;;;14.80;70.40;;;;;;5072468;28;19924;-67
2022/10/21 04:36:03;;;;;;;;;;;14.80;70.40;;;;;;5074117;28;19920;-67
2022/10/21 04:38:29;;;;;;;;;;;14.80;70.40;;;;;;5073129;28;20379;-68
2022/10/21 04:40:59;;;;;;;;;;;14.80;70.30;;;;;;5073099;28;19921;-67
2022/10/21 04:43:25;;;;;;;;;;;14.80;70.30;;;;;;5072939;28;19920;-67
2022/10/21 04:45:50;;;;;;;;;;;14.80;70.30;;;;;;5072743;28;20007;-68
2022/10/21 04:48:16;;;;;;;;;;;14.80;70.40;;;;;;5072629;28;19921;-67
2022/10/21 04:50:41;;;;;;;;;;;14.80;70.30;;;;;;5072532;28;19925;-68
2022/10/21 04:53:07;;;;;;;;;;;14.80;70.40;;;;;;5072584;28;19924;-67
2022/10/21 04:55:32;;;;;;;;;;;14.80;70.40;;;;;;5071601;28;19924;-67
2022/10/21 04:57:58;;;;;;;;;;;14.80;70.30;;;;;;5073701;28;19921;-67
2022/10/21 05:00:23;;;;;;;;;;;14.80;70.40;;;;;;5073708;28;20433;-67
2022/10/21 05:02:49;;;;;;;;;;;14.80;70.40;;;;;;5072661;28;19920;-68
2022/10/21 05:05:14;;;;;;;;;;;14.80;70.40;;;;;;5072245;28;19974;-68
2022/10/21 05:07:40;;;;;;;;;;;14.80;70.40;;;;;;5072601;28;19970;-67
2022/10/21 05:10:06;;;;;;;;;;;14.80;70.40;;;;;;5072192;28;20014;-67
2022/10/21 05:12:32;;;;;;;;;;;14.80;70.40;;;;;;5072297;28;19928;-67
2022/10/21 05:14:59;;;;;;;;;;;14.80;70.40;;;;;;5072370;28;19920;-67
2022/10/21 05:17:25;;;;;;;;;;;14.80;70.40;;;;;;5072340;28;19920;-68
2022/10/21 05:19:50;;;;;;;;;;;14.80;70.50;;;;;;5072287;28;20276;-68
2022/10/21 05:22:16;;;;;;;;;;;14.80;70.40;;;;;;5073158;28;20309;-67
2022/10/21 05:24:41;;;;;;;;;;;14.80;70.40;;;;;;5072117;28;19924;-67
2022/10/21 05:27:07;;;;;;;;;;;14.80;70.40;;;;;;5073146;28;20308;-67
2022/10/21 05:29:32;;;;;;;;;;;14.80;70.40;;;;;;5071822;28;19999;-67
2022/10/21 05:31:58;;;;;;;;;;;14.80;70.50;;;;;;5071711;28;19974;-67
2022/10/21 05:34:23;;;;;;;;;;;14.70;70.40;;;;;;5071376;28;19924;-68
2022/10/21 05:36:49;;;;;;;;;;;14.80;70.50;;;;;;5072830;28;19927;-67
2022/10/21 05:39:14;;;;;;;;;;;14.80;70.50;;;;;;5071688;28;19921;-67
2022/10/21 05:41:40;;;;;;;;;;;14.80;70.50;;;;;;5055241;28;19925;-67
2022/10/21 05:44:05;;;;;;;;;;;14.80;70.50;;;;;;5071867;28;20327;-68
2022/10/21 05:46:31;;;;;;;;;;;14.80;70.50;;;;;;5072197;28;20454;-67
2022/10/21 05:48:56;;;;;;;;;;;14.80;70.50;;;;;;5071447;28;19927;-67
2022/10/21 05:51:25;;;;;;;;;;;14.80;70.50;;;;;;5072656;28;19924;-67
2022/10/21 05:53:52;;;;;;;;;;;14.80;70.50;;;;;;5071583;28;19925;-68
2022/10/21 05:56:17;;;;;;;;;;;14.80;70.50;;;;;;5071618;28;19966;-67
2022/10/21 05:58:43;;;;;;;;;;;14.80;70.50;;;;;;5071722;28;20386;-67
2022/10/21 06:01:08;;;;;;;;;;;14.80;70.50;;;;;;5072503;28;19921;-67
2022/10/21 06:03:34;;;;;;;;;;;14.80;70.60;;;;;;5071336;28;20021;-68
2022/10/21 06:06:01;;;;;;;;;;;14.80;70.60;;;;;;5072506;28;20046;-68
2022/10/21 06:08:27;;;;;;;;;;;14.80;70.60;;;;;;5072237;28;19927;-67
2022/10/21 06:11:10;;;;;;;;;;;14.80;70.50;;;;;;5072575;28;19926;-67
2022/10/21 06:13:36;;;;;;;;;;;14.80;70.60;;;;;;5071081;28;19924;-67
2022/10/21 06:16:01;;;;;;;;;;;14.80;70.60;;;;;;5071394;28;19920;-68
2022/10/21 06:18:27;;;;;;;;;;;14.90;70.70;;;;;;5071147;28;19920;-68
2022/10/21 06:20:53;;;;;;;;;;;14.90;70.70;;;;;;5071024;28;19920;-67
2022/10/21 06:23:18;;;;;;;;;;;14.80;70.60;;;;;;5071079;28;19928;-67
2022/10/21 06:26:04;;;;;;;;;;;14.80;70.60;;;;;;5071011;28;19921;-68
2022/10/21 06:28:31;;;;;;;;;;;14.80;70.60;;;;;;5072269;28;20295;-67
2022/10/21 06:30:57;;;;;;;;;;;14.80;70.60;;;;;;5070984;28;20383;-67
2022/10/21 06:33:23;;;;;;;;;;;14.90;70.70;;;;;;5070635;28;19934;-67
2022/10/21 06:35:48;;;;;;;;;;;14.80;70.60;;;;;;5072234;28;19975;-67
2022/10/21 06:38:14;;;;;;;;;;;14.80;70.70;;;;;;5072242;28;20398;-67
2022/10/21 06:40:40;;;;;;;;;;;14.90;70.80;;;;;;5070598;28;19921;-68
2022/10/21 06:43:06;;;;;;;;;;;14.80;70.70;;;;;;5070589;28;19927;-67
2022/10/21 06:45:31;;;;;;;;;;;14.80;70.70;;;;;;5070300;28;20295;-67
2022/10/21 06:47:57;;;;;;;;;;;14.80;70.70;;;;;;5070122;28;20074;-67
2022/10/21 06:50:23;;;;;;;;;;;14.80;70.70;;;;;;5070693;28;19921;-67
2022/10/21 06:52:49;;;;;;;;;;;14.80;70.80;;;;;;5070848;28;19925;-67
2022/10/21 06:55:15;;;;;;;;;;;14.80;70.80;;;;;;5070761;28;19960;-67
2022/10/21 06:57:41;;;;;;;;;;;14.90;70.80;;;;;;5070696;28;19920;-67
2022/10/21 07:00:07;;;;;;;;;;;14.80;70.80;;;;;;5070936;28;19926;-67
2022/10/21 07:02:32;;;;;;;;;;;14.90;70.90;;;;;;5070646;28;20023;-67
2022/10/21 07:04:58;;;;;;;;;;;14.90;70.90;;;;;;5071963;28;20027;-67
2022/10/21 07:07:23;;;;;;;;;;;14.90;70.90;;;;;;5070541;28;20021;-67
2022/10/21 07:09:49;;;;;;;;;;;14.90;70.90;;;;;;5070997;28;19959;-68
2022/10/21 07:12:15;;;;;;;;;;;14.90;71.00;;;;;;5070728;28;20327;-67
2022/10/21 07:14:41;;;;;;;;;;;14.90;71.00;;;;;;5070897;28;19926;-67
2022/10/21 07:17:06;;;;;;;;;;;14.90;70.90;;;;;;5070565;28;19993;-68
2022/10/21 07:19:32;;;;;;;;;;;14.30;70.60;;;;;;5072006;28;19924;-67
2022/10/21 07:21:57;;;;;;;;;;;14.90;71.00;;;;;;5074850;28;19966;-67
2022/10/21 07:24:23;;;;;;;;;;;14.90;71.00;;;;;;5074399;28;19991;-67
2022/10/21 07:26:49;;;;;;;;;;;14.90;71.00;;;;;;5074161;28;19927;-67
2022/10/21 07:29:15;;;;;;;;;;;14.90;71.00;;;;;;5075358;28;19942;-68
2022/10/21 07:31:40;;;;;;;;;;;14.80;70.90;;;;;;5074155;28;19977;-67
2022/10/21 07:34:07;;;;;;;;;;;14.90;71.00;;;;;;5075007;28;19925;-67
2022/10/21 07:36:34;;;;;;;;;;;14.90;71.00;;;;;;5073943;28;20249;-67
2022/10/21 07:39:02;;;;;;;;;;;14.80;70.90;;;;;;5075349;28;19928;-67
2022/10/21 07:41:29;;;;;;;;;;;14.90;71.10;;;;;;5074283;28;19998;-67
2022/10/21 07:43:56;;;;;;;;;;;14.90;71.00;;;;;;5073824;28;19927;-67
2022/10/21 07:46:21;;;;;;;;;;;14.90;71.00;;;;;;5075158;28;20034;-68
2022/10/21 07:48:47;;;;;;;;;;;14.90;71.00;;;;;;5074013;28;20371;-67
2022/10/21 07:51:14;;;;;;;;;;;14.90;71.00;;;;;;5073620;28;20372;-67
2022/10/21 07:53:40;;;;;;;;;;;14.90;70.90;;;;;;5074887;28;19985;-67
2022/10/21 07:56:07;;;;;;;;;;;14.90;71.00;;;;;;5073927;28;20338;-67
2022/10/21 07:58:33;;;;;;;;;;;14.90;71.00;;;;;;5073614;28;19924;-67
2022/10/21 08:00:59;;;;;;;;;;;14.90;70.90;;;;;;5073864;28;19928;-67
2022/10/21 08:03:25;;;;;;;;;;;14.90;71.00;;;;;;5073519;28;19921;-68
2022/10/21 08:05:51;;;;;;;;;;;14.90;71.00;;;;;;5073649;28;20016;-67
2022/10/21 08:08:16;;;;;;;;;;;14.90;70.90;;;;;;5074748;28;19974;-67
2022/10/21 08:10:42;;;;;;;;;;;14.90;71.00;;;;;;5073682;28;20292;-66
2022/10/21 08:13:08;;;;;;;;;;;14.90;71.00;;;;;;5073290;28;19930;-67
2022/10/21 08:15:33;;;;;;;;;;;15.00;71.10;;;;;;5073280;28;19920;-67
2022/10/21 08:17:59;;;;;;;;;;;14.90;71.00;;;;;;5073624;28;19928;-67
2022/10/21 08:20:24;;;;;;;;;;;14.80;70.90;;;;;;5073500;28;20019;-67
2022/10/21 08:22:50;;;;;;;;;;;15.00;71.10;;;;;;5073171;28;20287;-67
2022/10/21 08:25:16;;;;;;;;;;;15.00;71.00;;;;;;5073032;28;19924;-67
2022/10/21 08:27:41;;;;;;;;;;;15.00;71.00;;;;;;5072547;28;20019;-68
2022/10/21 08:30:07;;;;;;;;;;;15.00;71.00;;;;;;5070909;28;20376;-66
2022/10/21 08:32:32;;;;;;;;;;;15.00;73.30;;;;;;5073029;28;19932;-66
2022/10/21 08:34:58;;;;;;;;;;;15.00;75.60;;;;;;5070162;28;19990;-70
2022/10/21 08:37:23;;;;;;;;;;;15.10;75.70;;;;;;5072030;28;19974;-66
2022/10/21 08:39:49;;;;;;;;;;;15.20;75.80;;;;;;5072289;28;19921;-68
2022/10/21 08:42:15;;;;;;;;;;;15.20;76.30;;;;;;5072095;28;19925;-68
2022/10/21 08:44:49;;;;;;;;;;;15.30;76.70;;;;;;5072344;28;19976;-68
2022/10/21 08:47:21;;;;;;;;;;;15.30;76.50;;;;;;5070259;28;19927;-68
2022/10/21 08:49:55;;;;;;;;;;;15.40;76.40;;;;;;5071983;28;19966;-68
2022/10/21 08:52:24;;;;;;;;;;;15.50;76.20;;;;;;5073272;28;20372;-68
2022/10/21 08:55:07;;;;;;;;;;;15.60;75.90;;;;;;5072287;28;19974;-68
2022/10/21 08:57:33;;;;;;;;;;;15.70;75.80;;;;;;5069897;28;19970;-68
2022/10/21 08:59:59;;;;;;;;;;;15.70;75.40;;;;;;5071349;28;19920;-68
2022/10/21 09:07:53;;;;;;;;;;;16.00;75.00;;;;;;5164455;27;20287;-68
2022/10/21 09:13:18;;;;;;;;;;;16.10;74.30;;;;;;5122519;27;20279;-68
2022/10/21 09:15:50;;;;;;;;;;;16.10;74.00;;;;;;5088401;28;20005;-69
2022/10/21 09:21:17;;;;;;;;;;;16.20;73.50;;;;;;5166436;27;795086;-70
2022/10/21 09:23:51;;;;;;;;;;;16.30;73.60;;;;;;5195150;27;19919;-69
2022/10/21 09:28:56;;;;;;;;;;;16.40;73.50;;;;;;5122527;27;19912;-68
2022/10/21 09:31:21;;;;;;;;;;;16.40;73.60;;;;;;5088621;28;19927;-68
2022/10/21 09:33:51;;;;;;;;;;;16.40;73.50;;;;;;5088547;28;19920;-68
2022/10/21 09:36:36;;;;;;;;;;;16.50;73.30;;;;;;5122578;28;19962;-68
2022/10/21 09:39:05;;;;;;;;;;;16.50;73.20;;;;;;5088526;28;19920;-69
2022/10/21 09:41:35;;;;;;;;;;;16.50;73.20;;;;;;5088341;28;19921;-68
2022/10/21 09:44:00;;;;;;;;;;;16.60;73.10;;;;;;5118707;28;19999;-69
2022/10/21 09:46:26;;;;;;;;;;;16.60;72.80;;;;;;5087927;28;20015;-68
2022/10/21 09:48:53;;;;;;;;;;;16.70;73.00;;;;;;5088027;28;20312;-69
2022/10/21 09:51:21;;;;;;;;;;;16.70;73.00;;;;;;5088136;28;20007;-70
2022/10/21 09:53:50;;;;;;;;;;;16.70;73.10;;;;;;5089414;28;19921;-69
2022/10/21 09:56:19;;;;;;;;;;;16.80;73.00;;;;;;5088095;28;19927;-69
2022/10/21 09:58:48;;;;;;;;;;;16.80;73.00;;;;;;5088404;28;20352;-69
2022/10/21 10:01:16;;;;;;;;;;;16.80;72.80;;;;;;5088009;28;19970;-69
2022/10/21 10:03:44;;;;;;;;;;;16.90;72.90;;;;;;5089214;28;19935;-69
2022/10/21 10:06:10;;;;;;;;;;;16.90;72.50;;;;;;5087428;28;19920;-69
2022/10/21 10:08:40;;;;;;;;;;;16.90;72.50;;;;;;5087649;28;19931;-69
2022/10/21 10:13:49;;;;;;;;;;;17.00;72.50;;;;;;5116004;27;19913;-68
2022/10/21 10:16:21;;;;;;;;;;;17.00;72.50;;;;;;5089578;28;19943;-69
2022/10/21 10:18:47;;;;;;;;;;;16.90;72.50;;;;;;5088760;28;19921;-69
2022/10/21 10:21:14;;;;;;;;;;;17.10;72.90;;;;;;5087439;28;20323;-70
2022/10/21 10:23:41;;;;;;;;;;;17.10;72.70;;;;;;5070833;28;20010;-69
2022/10/21 10:26:07;;;;;;;;;;;17.10;73.40;;;;;;5068445;28;20318;-70
2022/10/21 10:28:32;;;;;;;;;;;17.10;72.50;;;;;;5068101;28;19921;-70
2022/10/21 10:30:58;;;;;;;;;;;17.20;72.60;;;;;;5070299;28;19960;-70
2022/10/21 10:33:27;;;;;;;;;;;17.20;72.50;;;;;;5072875;28;19924;-68
2022/10/21 10:35:54;;;;;;;;;;;17.20;72.50;;;;;;5074324;28;19973;-68
2022/10/21 10:38:38;;;;;;;;;;;17.30;72.30;;;;;;5070852;28;19921;-70
2022/10/21 10:41:06;;;;;;;;;;;17.30;72.20;;;;;;5069060;28;19921;-69
2022/10/21 10:43:33;;;;;;;;;;;17.30;72.10;;;;;;5067677;28;19925;-68
2022/10/21 10:46:00;;;;;;;;;;;17.30;72.40;;;;;;5068755;28;19927;-67
2022/10/21 10:48:35;;;;;;;;;;;17.30;72.30;;;;;;5076979;28;20277;-67
2022/10/21 10:51:04;;;;;;;;;;;17.30;72.20;;;;;;5073937;28;20357;-68
2022/10/21 10:53:32;;;;;;;;;;;17.30;72.10;;;;;;5073678;28;20213;-70
2022/10/21 10:56:03;;;;;;;;;;;17.30;72.00;;;;;;5078316;28;19920;-67
2022/10/21 10:58:30;;;;;;;;;;;17.40;72.50;;;;;;5079865;28;19943;-68
2022/10/21 11:00:57;;;;;;;;;;;17.40;72.30;;;;;;5075760;28;20342;-67
2022/10/21 11:03:27;;;;;;;;;;;17.30;72.10;;;;;;5075219;28;19921;-68
2022/10/21 11:05:56;;;;;;;;;;;17.40;72.10;;;;;;5085474;28;19927;-67
2022/10/21 11:08:27;;;;;;;;;;;17.30;72.00;;;;;;5084738;28;19920;-67
2022/10/21 11:10:55;;;;;;;;;;;17.40;72.00;;;;;;5084188;28;20402;-67
2022/10/21 11:13:22;;;;;;;;;;;17.30;71.80;;;;;;5087285;28;19925;-69
2022/10/21 11:18:36;;;;;;;;;;;17.30;71.70;;;;;;5122412;27;19912;-66
2022/10/21 11:23:49;;;;;;;;;;;17.30;71.80;;;;;;5122485;27;19913;-66
2022/10/21 11:29:27;;;;;;;;;;;17.30;71.80;;;;;;5166829;27;799792;-67
2022/10/21 11:31:59;;;;;;;;;;;17.30;71.90;;;;;;5178585;27;20289;-70
2022/10/21 11:39:57;;;;;;;;;;;17.30;72.60;;;;;;5116187;27;19925;-67
2022/10/21 11:50:31;;;;;;;;;;;17.20;73.20;;;;;;5122398;27;19916;-68
2022/10/21 11:53:11;;;;;;;;;;;17.30;73.30;;;;;;5073020;28;20441;-66
2022/10/21 11:55:48;;;;;;;;;;;17.30;73.40;;;;;;5073931;28;19921;-68
2022/10/21 11:58:23;;;;;;;;;;;17.30;73.50;;;;;;5069094;28;20047;-71
2022/10/21 12:03:53;;;;;;;;;;;17.30;73.40;;;;;;5157599;27;798452;-67
2022/10/21 12:09:00;;;;;;;;;;;17.30;73.70;;;;;;5116074;27;19912;-71
2022/10/21 12:11:34;;;;;;;;;;;17.20;73.40;;;;;;5088646;28;19922;-67
2022/10/21 12:16:40;;;;;;;;;;;17.30;73.80;;;;;;5166119;27;797154;-74
2022/10/21 12:19:09;;;;;;;;;;;17.30;73.80;;;;;;5195261;27;19914;-65
2022/10/21 12:21:37;;;;;;;;;;;17.30;73.80;;;;;;5214366;27;19921;-65
2022/10/21 12:24:10;;;;;;;;;;;17.30;73.90;;;;;;5183266;27;19994;-66
2022/10/21 12:26:39;;;;;;;;;;;17.30;74.00;;;;;;5180372;27;19915;-75
2022/10/21 12:29:23;;;;;;;;;;;17.30;74.20;;;;;;5188894;27;19914;-65
2022/10/21 12:34:28;;;;;;;;;;;17.30;74.00;;;;;;5162480;27;801921;-65
2022/10/21 12:36:54;;;;;;;;;;;17.30;74.00;;;;;;5188958;27;19914;-75
2022/10/21 12:42:15;;;;;;;;;;;17.30;74.10;;;;;;5152274;27;802703;-65
2022/10/21 12:44:49;;;;;;;;;;;17.30;74.40;;;;;;5194831;27;19914;-72
2022/10/21 12:47:23;;;;;;;;;;;17.30;74.40;;;;;;5180970;27;19915;-66
2022/10/21 12:50:09;;;;;;;;;;;17.30;74.40;;;;;;5185410;27;20281;-69
2022/10/21 12:52:37;;;;;;;;;;;17.30;74.60;;;;;;5174347;27;19914;-66
2022/10/21 12:55:06;;;;;;;;;;;17.30;74.40;;;;;;5174189;27;19914;-70
2022/10/21 12:57:36;;;;;;;;;;;17.30;74.30;;;;;;5177077;27;20017;-67
2022/10/21 13:00:22;;;;;;;;;;;17.30;74.30;;;;;;5182050;27;19915;-66
2022/10/21 13:03:04;;;;;;;;;;;17.20;74.20;;;;;;5173874;27;19926;-65
2022/10/21 13:13:43;;;;;;;;;;;17.30;74.70;;;;;;5108107;27;19923;-66
2022/10/21 13:16:28;;;;;;;;;;;17.30;74.80;;;;;;5068624;28;19921;-66
2022/10/21 13:18:57;;;;;;;;;;;17.30;74.80;;;;;;5102136;28;20315;-66
2022/10/21 13:24:22;;;;;;;;;;;17.20;74.90;;;;;;5122829;27;19913;-66
2022/10/21 13:26:49;;;;;;;;;;;17.30;75.10;;;;;;5088358;28;19927;-66
2022/10/21 13:29:34;;;;;;;;;;;17.30;75.40;;;;;;5088709;28;19924;-69
2022/10/21 13:35:18;;;;;;;;;;;17.30;75.70;;;;;;5162213;27;19916;-68
2022/10/21 13:37:53;;;;;;;;;;;17.30;75.50;;;;;;5163907;27;19942;-68
2022/10/21 13:40:20;;;;;;;;;;;17.30;75.90;;;;;;5129590;28;20310;-68
2022/10/21 13:42:52;;;;;;;;;;;17.30;75.80;;;;;;5114230;28;19920;-68
2022/10/21 13:50:40;;;;;;;;;;;17.20;75.30;;;;;;5122958;27;19912;-68
2022/10/21 13:53:22;;;;;;;;;;;17.30;75.10;;;;;;5087997;28;20062;-68
2022/10/21 13:55:52;;;;;;;;;;;17.30;75.20;;;;;;5088772;28;19943;-68
2022/10/21 13:58:17;;;;;;;;;;;17.30;75.10;;;;;;5088838;28;19924;-68
2022/10/21 14:00:43;;;;;;;;;;;17.30;75.20;;;;;;5089681;28;19927;-68
2022/10/21 14:03:15;;;;;;;;;;;17.30;75.00;;;;;;5089687;28;20551;-68
2022/10/21 14:05:47;;;;;;;;;;;17.30;75.00;;;;;;5089839;28;20238;-68
2022/10/21 14:08:18;;;;;;;;;;;17.30;75.10;;;;;;5088604;28;20338;-68
2022/10/21 14:10:45;;;;;;;;;;;17.20;74.90;;;;;;5088612;28;19921;-68
2022/10/21 14:13:10;;;;;;;;;;;17.20;74.90;;;;;;5088243;28;20380;-68
2022/10/21 14:15:39;;;;;;;;;;;17.20;74.70;;;;;;5088404;28;19974;-68
2022/10/21 14:18:05;;;;;;;;;;;17.30;74.90;;;;;;5088363;28;20314;-68
2022/10/21 14:20:32;;;;;;;;;;;17.20;74.70;;;;;;5088098;28;19927;-68
2022/10/21 14:22:59;;;;;;;;;;;17.20;75.40;;;;;;5088367;28;19924;-68
2022/10/21 14:25:25;;;;;;;;;;;17.20;74.60;;;;;;5088070;28;19973;-68
2022/10/21 14:27:51;;;;;;;;;;;17.20;74.60;;;;;;5087883;28;19924;-68
2022/10/21 14:30:21;;;;;;;;;;;17.20;74.60;;;;;;5087841;28;19980;-68
2022/10/21 14:32:48;;;;;;;;;;;17.20;74.40;;;;;;5089115;28;20015;-67
2022/10/21 14:37:57;;;;;;;;;;;17.20;74.50;;;;;;5164216;27;19912;-68
2022/10/21 14:43:14;;;;;;;;;;;17.20;74.20;;;;;;5163967;27;19912;-68
2022/10/21 14:45:44;;;;;;;;;;;17.20;74.20;;;;;;5129918;28;20386;-68
2022/10/21 14:50:53;;;;;;;;;;;17.30;74.20;;;;;;5122604;27;20360;-68
2022/10/21 14:53:21;;;;;;;;;;;17.10;74.10;;;;;;5088427;28;19921;-69
2022/10/21 14:55:47;;;;;;;;;;;17.20;74.10;;;;;;5090367;28;20309;-68
2022/10/21 14:58:21;;;;;;;;;;;17.20;74.10;;;;;;5122548;28;19920;-67
2022/10/21 15:00:52;;;;;;;;;;;17.20;74.00;;;;;;5088954;28;19920;-67
2022/10/21 15:03:34;;;;;;;;;;;17.20;74.00;;;;;;5088402;28;20012;-68
2022/10/21 15:11:38;;;;;;;;;;;17.10;73.80;;;;;;5166401;27;796500;-67
2022/10/21 15:16:45;;;;;;;;;;;17.20;73.90;;;;;;5166328;27;798279;-68
2022/10/21 15:19:14;;;;;;;;;;;17.10;73.80;;;;;;5195422;27;19918;-68
2022/10/21 15:21:48;;;;;;;;;;;17.20;73.80;;;;;;5195737;27;19993;-67
2022/10/21 15:24:17;;;;;;;;;;;17.10;73.60;;;;;;5195541;27;20013;-67
2022/10/21 15:26:44;;;;;;;;;;;17.20;73.80;;;;;;5195718;27;20262;-68
2022/10/21 15:29:11;;;;;;;;;;;17.20;73.80;;;;;;5195467;27;19922;-67
2022/10/21 15:31:37;;;;;;;;;;;17.10;73.50;;;;;;5195267;27;19929;-68
2022/10/21 15:34:04;;;;;;;;;;;17.10;73.60;;;;;;5195010;27;19919;-67
2022/10/21 15:36:29;;;;;;;;;;;17.10;73.50;;;;;;5214034;27;19969;-68
2022/10/21 15:38:55;;;;;;;;;;;17.10;73.50;;;;;;5214089;27;19918;-68
2022/10/21 15:41:23;;;;;;;;;;;17.10;73.50;;;;;;5195434;27;19957;-67
2022/10/21 15:43:55;;;;;;;;;;;17.20;73.50;;;;;;5194910;27;19922;-67
2022/10/21 15:46:21;;;;;;;;;;;17.10;73.40;;;;;;5195308;27;20269;-68
2022/10/21 15:48:47;;;;;;;;;;;17.20;73.40;;;;;;5195324;27;19922;-68
2022/10/21 15:51:12;;;;;;;;;;;17.10;73.40;;;;;;5213782;27;20427;-68
2022/10/21 15:53:38;;;;;;;;;;;17.10;73.40;;;;;;5213793;27;19918;-68
2022/10/21 15:56:04;;;;;;;;;;;17.10;73.20;;;;;;5213649;27;19930;-68